sensor_id;sensor_type;location;lat;lon;timestamp;P1;durP1;ratioP1;P2;durP2;ratioP2
40286;SDS011;25998;46.604;13.610;2023-12-07T00:02:13;5.90;;;4.20;;
40286;SDS011;25998;46.604;13.610;2023-12-07T00:05:23;5.85;;;4.78;;
40286;SDS011;25998;46.604;13.610;2023-12-07T00:08:34;6.03;;;4.03;;
40286;SDS011;25998;46.604;13.610;2023-12-07T00:11:45;6.32;;;4.10;;
40286;SDS011;25998;46.604;13.610;2023-12-07T00:14:56;5.95;;;3.70;;
40286;SDS011;25998;46.604;13.610;2023-12-07T00:18:07;7.57;;;3.92;;
40286;SDS011;25998;46.604;13.610;2023-12-07T00:21:18;5.88;;;3.70;;
40286;SDS011;25998;46.604;13.610;2023-12-07T00:24:29;5.22;;;3.80;;
40286;SDS011;25998;46.604;13.610;2023-12-07T00:27:40;5.32;;;4.10;;
40286;SDS011;25998;46.604;13.610;2023-12-07T00:30:51;5.43;;;3.92;;
40286;SDS011;25998;46.604;13.610;2023-12-07T00:34:02;5.32;;;3.30;;
40286;SDS011;25998;46.604;13.610;2023-12-07T00:37:13;5.50;;;3.45;;
40286;SDS011;25998;46.604;13.610;2023-12-07T00:40:24;4.85;;;3.35;;
40286;SDS011;25998;46.604;13.610;2023-12-07T00:43:35;4.47;;;3.42;;
40286;SDS011;25998;46.604;13.610;2023-12-07T00:46:46;5.65;;;3.75;;
40286;SDS011;25998;46.604;13.610;2023-12-07T00:49:57;5.28;;;3.40;;
40286;SDS011;25998;46.604;13.610;2023-12-07T00:53:07;6.38;;;3.70;;
40286;SDS011;25998;46.604;13.610;2023-12-07T00:56:18;4.68;;;3.08;;
40286;SDS011;25998;46.604;13.610;2023-12-07T00:59:29;5.03;;;3.40;;
40286;SDS011;25998;46.604;13.610;2023-12-07T01:02:43;5.20;;;3.30;;
40286;SDS011;25998;46.604;13.610;2023-12-07T01:05:54;5.55;;;3.10;;
40286;SDS011;25998;46.604;13.610;2023-12-07T01:09:05;4.40;;;2.78;;
40286;SDS011;25998;46.604;13.610;2023-12-07T01:12:16;4.93;;;2.90;;
40286;SDS011;25998;46.604;13.610;2023-12-07T01:15:27;4.45;;;2.70;;
40286;SDS011;25998;46.604;13.610;2023-12-07T01:18:38;3.70;;;2.75;;
40286;SDS011;25998;46.604;13.610;2023-12-07T01:21:49;4.45;;;2.75;;
40286;SDS011;25998;46.604;13.610;2023-12-07T01:25:00;4.18;;;2.83;;
40286;SDS011;25998;46.604;13.610;2023-12-07T01:28:10;4.22;;;2.65;;
40286;SDS011;25998;46.604;13.610;2023-12-07T01:31:21;3.67;;;2.70;;
40286;SDS011;25998;46.604;13.610;2023-12-07T01:34:32;4.15;;;2.55;;
40286;SDS011;25998;46.604;13.610;2023-12-07T01:37:43;3.92;;;2.75;;
40286;SDS011;25998;46.604;13.610;2023-12-07T01:40:54;3.65;;;2.42;;
40286;SDS011;25998;46.604;13.610;2023-12-07T01:44:05;4.50;;;2.50;;
40286;SDS011;25998;46.604;13.610;2023-12-07T01:47:16;4.95;;;2.90;;
40286;SDS011;25998;46.604;13.610;2023-12-07T01:50:27;4.32;;;2.63;;
40286;SDS011;25998;46.604;13.610;2023-12-07T01:53:39;2.88;;;2.17;;
40286;SDS011;25998;46.604;13.610;2023-12-07T01:56:51;4.30;;;2.40;;
40286;SDS011;25998;46.604;13.610;2023-12-07T02:00:02;4.20;;;2.70;;
40286;SDS011;25998;46.604;13.610;2023-12-07T02:03:16;6.10;;;2.72;;
40286;SDS011;25998;46.604;13.610;2023-12-07T02:06:28;6.00;;;2.75;;
40286;SDS011;25998;46.604;13.610;2023-12-07T02:09:38;5.93;;;3.03;;
40286;SDS011;25998;46.604;13.610;2023-12-07T02:12:49;7.28;;;2.67;;
40286;SDS011;25998;46.604;13.610;2023-12-07T02:16:04;3.55;;;2.42;;
40286;SDS011;25998;46.604;13.610;2023-12-07T02:23:04;3.95;;;2.90;;
40286;SDS011;25998;46.604;13.610;2023-12-07T02:26:18;4.55;;;2.88;;
40286;SDS011;25998;46.604;13.610;2023-12-07T02:29:41;3.80;;;2.38;;
40286;SDS011;25998;46.604;13.610;2023-12-07T02:32:51;4.03;;;2.42;;
40286;SDS011;25998;46.604;13.610;2023-12-07T02:36:02;4.28;;;2.70;;
40286;SDS011;25998;46.604;13.610;2023-12-07T02:39:14;3.42;;;2.10;;
40286;SDS011;25998;46.604;13.610;2023-12-07T02:42:25;4.63;;;3.03;;
40286;SDS011;25998;46.604;13.610;2023-12-07T02:45:37;4.88;;;2.78;;
40286;SDS011;25998;46.604;13.610;2023-12-07T02:48:48;13.07;;;2.83;;
40286;SDS011;25998;46.604;13.610;2023-12-07T02:51:59;4.88;;;2.70;;
40286;SDS011;25998;46.604;13.610;2023-12-07T02:55:10;6.13;;;2.75;;
40286;SDS011;25998;46.604;13.610;2023-12-07T02:58:21;4.65;;;2.72;;
40286;SDS011;25998;46.604;13.610;2023-12-07T03:01:32;4.13;;;2.92;;
40286;SDS011;25998;46.604;13.610;2023-12-07T03:04:43;5.57;;;2.72;;
40286;SDS011;25998;46.604;13.610;2023-12-07T03:07:54;4.38;;;2.72;;
40286;SDS011;25998;46.604;13.610;2023-12-07T03:11:05;3.47;;;2.35;;
40286;SDS011;25998;46.604;13.610;2023-12-07T03:14:16;3.75;;;2.60;;
40286;SDS011;25998;46.604;13.610;2023-12-07T03:17:27;3.63;;;2.15;;
40286;SDS011;25998;46.604;13.610;2023-12-07T03:20:38;4.22;;;2.75;;
40286;SDS011;25998;46.604;13.610;2023-12-07T03:23:48;3.25;;;2.33;;
40286;SDS011;25998;46.604;13.610;2023-12-07T03:27:00;3.92;;;2.20;;
40286;SDS011;25998;46.604;13.610;2023-12-07T03:30:10;7.68;;;2.17;;
40286;SDS011;25998;46.604;13.610;2023-12-07T03:33:22;3.58;;;2.42;;
40286;SDS011;25998;46.604;13.610;2023-12-07T03:36:32;3.33;;;2.05;;
40286;SDS011;25998;46.604;13.610;2023-12-07T03:39:43;3.13;;;2.10;;
40286;SDS011;25998;46.604;13.610;2023-12-07T03:42:54;3.47;;;2.22;;
40286;SDS011;25998;46.604;13.610;2023-12-07T03:46:05;3.40;;;2.30;;
40286;SDS011;25998;46.604;13.610;2023-12-07T03:49:17;3.15;;;2.20;;
40286;SDS011;25998;46.604;13.610;2023-12-07T03:52:27;4.57;;;2.50;;
40286;SDS011;25998;46.604;13.610;2023-12-07T03:55:38;3.60;;;2.65;;
40286;SDS011;25998;46.604;13.610;2023-12-07T03:58:49;2.92;;;2.10;;
40286;SDS011;25998;46.604;13.610;2023-12-07T04:02:00;4.20;;;2.75;;
40286;SDS011;25998;46.604;13.610;2023-12-07T04:05:11;7.72;;;2.35;;
40286;SDS011;25998;46.604;13.610;2023-12-07T04:08:22;4.93;;;2.58;;
40286;SDS011;25998;46.604;13.610;2023-12-07T04:11:33;3.50;;;2.10;;
40286;SDS011;25998;46.604;13.610;2023-12-07T04:14:44;14.07;;;3.67;;
40286;SDS011;25998;46.604;13.610;2023-12-07T04:17:55;3.58;;;2.30;;
40286;SDS011;25998;46.604;13.610;2023-12-07T04:21:05;6.20;;;2.40;;
40286;SDS011;25998;46.604;13.610;2023-12-07T04:24:16;3.58;;;2.35;;
40286;SDS011;25998;46.604;13.610;2023-12-07T04:27:27;4.22;;;3.05;;
40286;SDS011;25998;46.604;13.610;2023-12-07T04:30:38;4.88;;;2.60;;
40286;SDS011;25998;46.604;13.610;2023-12-07T04:33:50;7.80;;;2.90;;
40286;SDS011;25998;46.604;13.610;2023-12-07T04:37:01;3.90;;;2.40;;
40286;SDS011;25998;46.604;13.610;2023-12-07T04:40:12;7.18;;;2.67;;
40286;SDS011;25998;46.604;13.610;2023-12-07T04:43:24;3.55;;;2.20;;
40286;SDS011;25998;46.604;13.610;2023-12-07T04:46:35;4.85;;;2.10;;
40286;SDS011;25998;46.604;13.610;2023-12-07T04:49:46;5.05;;;2.30;;
40286;SDS011;25998;46.604;13.610;2023-12-07T04:52:57;3.85;;;2.00;;
40286;SDS011;25998;46.604;13.610;2023-12-07T04:56:08;2.75;;;1.73;;
40286;SDS011;25998;46.604;13.610;2023-12-07T04:59:19;3.15;;;2.22;;
40286;SDS011;25998;46.604;13.610;2023-12-07T05:02:30;4.53;;;2.28;;
40286;SDS011;25998;46.604;13.610;2023-12-07T05:05:40;3.92;;;2.00;;
40286;SDS011;25998;46.604;13.610;2023-12-07T05:08:51;13.35;;;2.75;;
40286;SDS011;25998;46.604;13.610;2023-12-07T05:12:02;4.03;;;2.65;;
40286;SDS011;25998;46.604;13.610;2023-12-07T05:15:14;4.57;;;2.58;;
40286;SDS011;25998;46.604;13.610;2023-12-07T05:18:25;8.02;;;3.50;;
40286;SDS011;25998;46.604;13.610;2023-12-07T05:21:37;28.63;;;5.00;;
40286;SDS011;25998;46.604;13.610;2023-12-07T05:24:48;4.65;;;3.47;;
40286;SDS011;25998;46.604;13.610;2023-12-07T05:28:00;8.43;;;3.47;;
40286;SDS011;25998;46.604;13.610;2023-12-07T05:31:17;5.35;;;2.78;;
40286;SDS011;25998;46.604;13.610;2023-12-07T05:34:28;5.07;;;2.90;;
40286;SDS011;25998;46.604;13.610;2023-12-07T05:37:39;7.40;;;2.42;;
40286;SDS011;25998;46.604;13.610;2023-12-07T05:40:50;8.35;;;3.08;;
40286;SDS011;25998;46.604;13.610;2023-12-07T05:44:01;3.95;;;2.50;;
40286;SDS011;25998;46.604;13.610;2023-12-07T05:47:13;8.32;;;2.70;;
40286;SDS011;25998;46.604;13.610;2023-12-07T05:50:24;11.52;;;2.35;;
40286;SDS011;25998;46.604;13.610;2023-12-07T05:53:35;5.30;;;2.40;;
40286;SDS011;25998;46.604;13.610;2023-12-07T05:56:46;7.93;;;2.55;;
40286;SDS011;25998;46.604;13.610;2023-12-07T05:59:57;4.93;;;2.30;;
40286;SDS011;25998;46.604;13.610;2023-12-07T06:03:09;4.63;;;2.90;;
40286;SDS011;25998;46.604;13.610;2023-12-07T06:06:19;4.82;;;2.45;;
40286;SDS011;25998;46.604;13.610;2023-12-07T06:09:31;5.82;;;2.72;;
40286;SDS011;25998;46.604;13.610;2023-12-07T06:12:42;6.50;;;2.58;;
40286;SDS011;25998;46.604;13.610;2023-12-07T06:15:53;5.13;;;2.45;;
40286;SDS011;25998;46.604;13.610;2023-12-07T06:19:04;6.57;;;3.33;;
40286;SDS011;25998;46.604;13.610;2023-12-07T06:22:15;5.25;;;2.97;;
40286;SDS011;25998;46.604;13.610;2023-12-07T06:25:26;4.72;;;2.92;;
40286;SDS011;25998;46.604;13.610;2023-12-07T06:28:37;8.05;;;2.90;;
40286;SDS011;25998;46.604;13.610;2023-12-07T06:31:48;7.70;;;2.67;;
40286;SDS011;25998;46.604;13.610;2023-12-07T06:34:59;5.70;;;2.88;;
40286;SDS011;25998;46.604;13.610;2023-12-07T06:38:10;4.93;;;2.42;;
40286;SDS011;25998;46.604;13.610;2023-12-07T06:41:21;3.60;;;2.47;;
40286;SDS011;25998;46.604;13.610;2023-12-07T06:44:32;4.30;;;2.53;;
40286;SDS011;25998;46.604;13.610;2023-12-07T06:47:43;9.45;;;3.08;;
40286;SDS011;25998;46.604;13.610;2023-12-07T06:50:54;7.60;;;3.10;;
40286;SDS011;25998;46.604;13.610;2023-12-07T06:54:05;15.52;;;3.25;;
40286;SDS011;25998;46.604;13.610;2023-12-07T06:57:16;6.28;;;2.70;;
40286;SDS011;25998;46.604;13.610;2023-12-07T07:00:26;5.25;;;2.40;;
40286;SDS011;25998;46.604;13.610;2023-12-07T07:03:37;4.60;;;2.70;;
40286;SDS011;25998;46.604;13.610;2023-12-07T07:06:48;6.18;;;2.67;;
40286;SDS011;25998;46.604;13.610;2023-12-07T07:09:59;5.38;;;3.47;;
40286;SDS011;25998;46.604;13.610;2023-12-07T07:13:10;9.52;;;3.10;;
40286;SDS011;25998;46.604;13.610;2023-12-07T07:16:21;4.47;;;2.58;;
40286;SDS011;25998;46.604;13.610;2023-12-07T07:19:32;5.80;;;2.47;;
40286;SDS011;25998;46.604;13.610;2023-12-07T07:22:42;5.15;;;2.75;;
40286;SDS011;25998;46.604;13.610;2023-12-07T07:25:53;9.32;;;3.80;;
40286;SDS011;25998;46.604;13.610;2023-12-07T07:29:04;6.97;;;3.25;;
40286;SDS011;25998;46.604;13.610;2023-12-07T07:32:16;7.07;;;4.03;;
40286;SDS011;25998;46.604;13.610;2023-12-07T07:35:27;7.55;;;5.72;;
40286;SDS011;25998;46.604;13.610;2023-12-07T07:38:38;8.32;;;5.93;;
40286;SDS011;25998;46.604;13.610;2023-12-07T07:41:49;6.85;;;4.10;;
40286;SDS011;25998;46.604;13.610;2023-12-07T07:45:00;6.45;;;3.70;;
40286;SDS011;25998;46.604;13.610;2023-12-07T07:48:11;6.05;;;3.58;;
40286;SDS011;25998;46.604;13.610;2023-12-07T07:51:22;6.28;;;5.40;;
40286;SDS011;25998;46.604;13.610;2023-12-07T07:54:33;9.32;;;6.38;;
40286;SDS011;25998;46.604;13.610;2023-12-07T07:57:44;9.00;;;5.25;;
40286;SDS011;25998;46.604;13.610;2023-12-07T08:00:55;6.60;;;4.63;;
40286;SDS011;25998;46.604;13.610;2023-12-07T08:04:05;6.20;;;4.35;;
40286;SDS011;25998;46.604;13.610;2023-12-07T08:07:17;7.32;;;3.67;;
40286;SDS011;25998;46.604;13.610;2023-12-07T08:10:28;8.80;;;5.53;;
40286;SDS011;25998;46.604;13.610;2023-12-07T08:13:39;10.10;;;7.35;;
40286;SDS011;25998;46.604;13.610;2023-12-07T08:16:50;327.10;;;28.83;;
40286;SDS011;25998;46.604;13.610;2023-12-07T08:20:01;101.20;;;10.70;;
40286;SDS011;25998;46.604;13.610;2023-12-07T08:23:12;119.25;;;11.90;;
40286;SDS011;25998;46.604;13.610;2023-12-07T08:26:23;7.43;;;5.43;;
40286;SDS011;25998;46.604;13.610;2023-12-07T08:29:34;6.55;;;4.40;;
40286;SDS011;25998;46.604;13.610;2023-12-07T08:32:45;6.22;;;4.15;;
40286;SDS011;25998;46.604;13.610;2023-12-07T08:35:56;6.10;;;4.28;;
40286;SDS011;25998;46.604;13.610;2023-12-07T08:39:07;7.90;;;5.13;;
40286;SDS011;25998;46.604;13.610;2023-12-07T08:42:19;32.90;;;7.75;;
40286;SDS011;25998;46.604;13.610;2023-12-07T08:45:31;103.85;;;13.07;;
40286;SDS011;25998;46.604;13.610;2023-12-07T08:48:41;54.90;;;7.72;;
40286;SDS011;25998;46.604;13.610;2023-12-07T08:51:53;116.63;;;10.57;;
40286;SDS011;25998;46.604;13.610;2023-12-07T08:55:04;360.80;;;26.70;;
40286;SDS011;25998;46.604;13.610;2023-12-07T08:58:15;86.55;;;9.52;;
40286;SDS011;25998;46.604;13.610;2023-12-07T09:01:25;186.77;;;14.75;;
40286;SDS011;25998;46.604;13.610;2023-12-07T09:04:36;229.10;;;17.88;;
40286;SDS011;25998;46.604;13.610;2023-12-07T09:07:49;67.43;;;8.45;;
40286;SDS011;25998;46.604;13.610;2023-12-07T09:11:02;165.35;;;14.95;;
40286;SDS011;25998;46.604;13.610;2023-12-07T09:14:14;241.15;;;18.50;;
40286;SDS011;25998;46.604;13.610;2023-12-07T09:17:25;212.75;;;29.80;;
40286;SDS011;25998;46.604;13.610;2023-12-07T09:20:36;53.22;;;12.80;;
40286;SDS011;25998;46.604;13.610;2023-12-07T09:23:47;214.98;;;20.23;;
40286;SDS011;25998;46.604;13.610;2023-12-07T09:26:58;186.10;;;16.17;;
40286;SDS011;25998;46.604;13.610;2023-12-07T09:30:09;222.15;;;18.92;;
40286;SDS011;25998;46.604;13.610;2023-12-07T09:33:21;69.68;;;9.55;;
40286;SDS011;25998;46.604;13.610;2023-12-07T09:36:32;298.17;;;22.25;;
40286;SDS011;25998;46.604;13.610;2023-12-07T09:39:42;352.67;;;29.10;;
40286;SDS011;25998;46.604;13.610;2023-12-07T09:42:53;443.30;;;37.45;;
40286;SDS011;25998;46.604;13.610;2023-12-07T09:46:05;264.73;;;22.05;;
40286;SDS011;25998;46.604;13.610;2023-12-07T09:49:16;62.63;;;8.27;;
40286;SDS011;25998;46.604;13.610;2023-12-07T09:52:27;105.70;;;11.15;;
40286;SDS011;25998;46.604;13.610;2023-12-07T09:55:38;214.05;;;15.57;;
40286;SDS011;25998;46.604;13.610;2023-12-07T09:58:50;58.33;;;8.05;;
40286;SDS011;25998;46.604;13.610;2023-12-07T10:02:01;78.43;;;9.07;;
40286;SDS011;25998;46.604;13.610;2023-12-07T10:05:12;102.85;;;9.60;;
40286;SDS011;25998;46.604;13.610;2023-12-07T10:08:30;93.07;;;12.23;;
40286;SDS011;25998;46.604;13.610;2023-12-07T10:11:42;60.22;;;10.07;;
40286;SDS011;25998;46.604;13.610;2023-12-07T10:14:54;52.67;;;8.65;;
40286;SDS011;25998;46.604;13.610;2023-12-07T10:18:05;59.45;;;9.02;;
40286;SDS011;25998;46.604;13.610;2023-12-07T10:21:30;283.45;;;20.02;;
40286;SDS011;25998;46.604;13.610;2023-12-07T10:24:42;299.23;;;21.15;;
40286;SDS011;25998;46.604;13.610;2023-12-07T10:27:53;171.63;;;14.57;;
40286;SDS011;25998;46.604;13.610;2023-12-07T10:31:08;130.55;;;13.38;;
40286;SDS011;25998;46.604;13.610;2023-12-07T10:34:20;148.77;;;13.50;;
40286;SDS011;25998;46.604;13.610;2023-12-07T10:37:31;192.30;;;16.05;;
40286;SDS011;25998;46.604;13.610;2023-12-07T10:40:42;148.10;;;15.13;;
40286;SDS011;25998;46.604;13.610;2023-12-07T10:43:53;115.80;;;14.75;;
40286;SDS011;25998;46.604;13.610;2023-12-07T10:47:10;21.80;;;7.80;;
40286;SDS011;25998;46.604;13.610;2023-12-07T10:50:21;50.55;;;8.43;;
40286;SDS011;25998;46.604;13.610;2023-12-07T10:53:34;169.50;;;14.80;;
40286;SDS011;25998;46.604;13.610;2023-12-07T10:56:50;110.22;;;11.23;;
40286;SDS011;25998;46.604;13.610;2023-12-07T11:00:02;240.40;;;18.92;;
40286;SDS011;25998;46.604;13.610;2023-12-07T11:03:14;152.23;;;14.98;;
40286;SDS011;25998;46.604;13.610;2023-12-07T11:06:29;256.20;;;19.42;;
40286;SDS011;25998;46.604;13.610;2023-12-07T11:09:42;123.03;;;12.77;;
40286;SDS011;25998;46.604;13.610;2023-12-07T11:13:05;95.75;;;10.55;;
40286;SDS011;25998;46.604;13.610;2023-12-07T11:16:32;101.30;;;11.55;;
40286;SDS011;25998;46.604;13.610;2023-12-07T11:19:48;28.73;;;8.80;;
40286;SDS011;25998;46.604;13.610;2023-12-07T11:22:59;77.05;;;11.80;;
40286;SDS011;25998;46.604;13.610;2023-12-07T11:26:14;35.95;;;9.00;;
40286;SDS011;25998;46.604;13.610;2023-12-07T11:29:29;35.88;;;9.43;;
40286;SDS011;25998;46.604;13.610;2023-12-07T11:32:40;13.20;;;6.00;;
40286;SDS011;25998;46.604;13.610;2023-12-07T11:42:24;9.70;;;6.85;;
40286;SDS011;25998;46.604;13.610;2023-12-07T11:45:49;8.07;;;6.40;;
40286;SDS011;25998;46.604;13.610;2023-12-07T11:49:00;8.40;;;6.47;;
40286;SDS011;25998;46.604;13.610;2023-12-07T11:52:15;21.45;;;6.60;;
40286;SDS011;25998;46.604;13.610;2023-12-07T11:55:28;57.95;;;9.02;;
40286;SDS011;25998;46.604;13.610;2023-12-07T11:58:41;147.48;;;16.13;;
40286;SDS011;25998;46.604;13.610;2023-12-07T12:01:54;224.85;;;19.60;;
40286;SDS011;25998;46.604;13.610;2023-12-07T12:05:05;117.32;;;15.10;;
40286;SDS011;25998;46.604;13.610;2023-12-07T12:08:16;50.10;;;10.85;;
40286;SDS011;25998;46.604;13.610;2023-12-07T12:11:28;70.95;;;10.75;;
40286;SDS011;25998;46.604;13.610;2023-12-07T12:14:39;35.78;;;8.65;;
40286;SDS011;25998;46.604;13.610;2023-12-07T12:17:51;69.30;;;10.50;;
40286;SDS011;25998;46.604;13.610;2023-12-07T12:21:03;221.63;;;20.20;;
40286;SDS011;25998;46.604;13.610;2023-12-07T12:24:14;143.48;;;15.02;;
40286;SDS011;25998;46.604;13.610;2023-12-07T12:27:25;104.82;;;12.77;;
40286;SDS011;25998;46.604;13.610;2023-12-07T12:30:36;169.35;;;16.42;;
40286;SDS011;25998;46.604;13.610;2023-12-07T12:33:47;240.23;;;20.77;;
40286;SDS011;25998;46.604;13.610;2023-12-07T12:36:59;235.65;;;19.48;;
40286;SDS011;25998;46.604;13.610;2023-12-07T12:40:12;333.83;;;25.45;;
40286;SDS011;25998;46.604;13.610;2023-12-07T12:43:31;155.93;;;14.77;;
40286;SDS011;25998;46.604;13.610;2023-12-07T12:46:42;170.55;;;15.45;;
40286;SDS011;25998;46.604;13.610;2023-12-07T12:49:53;404.73;;;30.38;;
40286;SDS011;25998;46.604;13.610;2023-12-07T12:53:05;315.83;;;27.25;;
40286;SDS011;25998;46.604;13.610;2023-12-07T12:56:16;259.55;;;20.13;;
40286;SDS011;25998;46.604;13.610;2023-12-07T12:59:29;25.38;;;6.95;;
40286;SDS011;25998;46.604;13.610;2023-12-07T13:02:40;25.00;;;7.90;;
40286;SDS011;25998;46.604;13.610;2023-12-07T13:05:51;544.83;;;41.70;;
40286;SDS011;25998;46.604;13.610;2023-12-07T13:09:02;29.13;;;8.68;;
40286;SDS011;25998;46.604;13.610;2023-12-07T13:12:13;247.73;;;20.98;;
40286;SDS011;25998;46.604;13.610;2023-12-07T13:15:23;191.20;;;24.52;;
40286;SDS011;25998;46.604;13.610;2023-12-07T13:18:35;181.23;;;18.35;;
40286;SDS011;25998;46.604;13.610;2023-12-07T13:21:46;580.78;;;43.65;;
40286;SDS011;25998;46.604;13.610;2023-12-07T13:24:57;73.18;;;14.63;;
40286;SDS011;25998;46.604;13.610;2023-12-07T13:28:08;146.65;;;19.55;;
40286;SDS011;25998;46.604;13.610;2023-12-07T13:31:19;299.20;;;29.17;;
40286;SDS011;25998;46.604;13.610;2023-12-07T13:34:30;281.38;;;25.95;;
40286;SDS011;25998;46.604;13.610;2023-12-07T13:37:41;316.58;;;25.33;;
40286;SDS011;25998;46.604;13.610;2023-12-07T13:40:52;532.05;;;42.08;;
40286;SDS011;25998;46.604;13.610;2023-12-07T13:44:03;318.98;;;25.48;;
40286;SDS011;25998;46.604;13.610;2023-12-07T13:47:17;449.98;;;38.38;;
40286;SDS011;25998;46.604;13.610;2023-12-07T13:50:27;350.17;;;29.25;;
40286;SDS011;25998;46.604;13.610;2023-12-07T13:53:39;569.50;;;47.95;;
40286;SDS011;25998;46.604;13.610;2023-12-07T13:56:50;562.15;;;43.28;;
40286;SDS011;25998;46.604;13.610;2023-12-07T14:00:00;658.92;;;58.30;;
40286;SDS011;25998;46.604;13.610;2023-12-07T14:03:11;487.88;;;44.25;;
40286;SDS011;25998;46.604;13.610;2023-12-07T14:06:23;447.38;;;37.65;;
40286;SDS011;25998;46.604;13.610;2023-12-07T14:09:34;308.02;;;29.63;;
40286;SDS011;25998;46.604;13.610;2023-12-07T14:12:46;299.75;;;29.73;;
40286;SDS011;25998;46.604;13.610;2023-12-07T14:15:57;617.83;;;54.92;;
40286;SDS011;25998;46.604;13.610;2023-12-07T14:19:08;603.13;;;57.25;;
40286;SDS011;25998;46.604;13.610;2023-12-07T14:22:19;214.00;;;25.70;;
40286;SDS011;25998;46.604;13.610;2023-12-07T14:25:30;123.63;;;19.80;;
40286;SDS011;25998;46.604;13.610;2023-12-07T14:28:41;124.93;;;20.52;;
40286;SDS011;25998;46.604;13.610;2023-12-07T14:31:52;343.25;;;31.60;;
40286;SDS011;25998;46.604;13.610;2023-12-07T14:35:03;380.58;;;36.20;;
40286;SDS011;25998;46.604;13.610;2023-12-07T14:38:14;341.17;;;34.53;;
40286;SDS011;25998;46.604;13.610;2023-12-07T14:41:25;22.42;;;14.98;;
40286;SDS011;25998;46.604;13.610;2023-12-07T14:44:36;61.22;;;17.75;;
40286;SDS011;25998;46.604;13.610;2023-12-07T14:47:47;311.70;;;31.20;;
40286;SDS011;25998;46.604;13.610;2023-12-07T14:50:59;421.55;;;35.97;;
40286;SDS011;25998;46.604;13.610;2023-12-07T14:54:09;657.45;;;55.35;;
40286;SDS011;25998;46.604;13.610;2023-12-07T14:57:20;377.30;;;33.78;;
40286;SDS011;25998;46.604;13.610;2023-12-07T15:00:31;649.90;;;52.15;;
40286;SDS011;25998;46.604;13.610;2023-12-07T15:03:42;498.85;;;42.50;;
40286;SDS011;25998;46.604;13.610;2023-12-07T15:06:53;613.05;;;58.38;;
40286;SDS011;25998;46.604;13.610;2023-12-07T15:10:05;649.97;;;52.33;;
40286;SDS011;25998;46.604;13.610;2023-12-07T15:13:18;495.40;;;40.58;;
40286;SDS011;25998;46.604;13.610;2023-12-07T15:16:29;708.97;;;62.20;;
40286;SDS011;25998;46.604;13.610;2023-12-07T15:19:40;431.05;;;36.38;;
40286;SDS011;25998;46.604;13.610;2023-12-07T15:22:51;505.00;;;43.75;;
40286;SDS011;25998;46.604;13.610;2023-12-07T15:26:02;456.05;;;39.45;;
40286;SDS011;25998;46.604;13.610;2023-12-07T15:29:13;394.85;;;36.60;;
40286;SDS011;25998;46.604;13.610;2023-12-07T15:32:24;324.23;;;31.00;;
40286;SDS011;25998;46.604;13.610;2023-12-07T15:35:35;533.35;;;47.63;;
40286;SDS011;25998;46.604;13.610;2023-12-07T15:38:46;517.33;;;46.67;;
40286;SDS011;25998;46.604;13.610;2023-12-07T15:41:57;401.02;;;37.25;;
40286;SDS011;25998;46.604;13.610;2023-12-07T15:45:08;108.63;;;20.08;;
40286;SDS011;25998;46.604;13.610;2023-12-07T15:48:20;100.85;;;19.35;;
40286;SDS011;25998;46.604;13.610;2023-12-07T15:51:31;232.07;;;28.48;;
40286;SDS011;25998;46.604;13.610;2023-12-07T15:54:41;390.77;;;58.60;;
40286;SDS011;25998;46.604;13.610;2023-12-07T15:57:54;204.65;;;24.23;;
40286;SDS011;25998;46.604;13.610;2023-12-07T16:01:05;277.48;;;29.50;;
40286;SDS011;25998;46.604;13.610;2023-12-07T16:04:16;403.80;;;44.08;;
40286;SDS011;25998;46.604;13.610;2023-12-07T16:07:28;423.27;;;38.67;;
40286;SDS011;25998;46.604;13.610;2023-12-07T16:10:39;277.92;;;33.30;;
40286;SDS011;25998;46.604;13.610;2023-12-07T16:13:50;162.65;;;25.80;;
40286;SDS011;25998;46.604;13.610;2023-12-07T16:17:01;241.13;;;29.25;;
40286;SDS011;25998;46.604;13.610;2023-12-07T16:20:12;96.63;;;18.88;;
40286;SDS011;25998;46.604;13.610;2023-12-07T16:23:25;85.35;;;17.60;;
40286;SDS011;25998;46.604;13.610;2023-12-07T16:26:36;102.38;;;20.95;;
40286;SDS011;25998;46.604;13.610;2023-12-07T16:29:47;43.65;;;15.82;;
40286;SDS011;25998;46.604;13.610;2023-12-07T16:32:58;236.65;;;29.08;;
40286;SDS011;25998;46.604;13.610;2023-12-07T16:36:14;214.07;;;28.13;;
40286;SDS011;25998;46.604;13.610;2023-12-07T16:39:26;77.50;;;17.52;;
40286;SDS011;25998;46.604;13.610;2023-12-07T16:42:37;47.00;;;16.38;;
40286;SDS011;25998;46.604;13.610;2023-12-07T16:45:48;128.93;;;19.42;;
40286;SDS011;25998;46.604;13.610;2023-12-07T16:48:59;49.80;;;17.10;;
40286;SDS011;25998;46.604;13.610;2023-12-07T16:52:10;23.15;;;13.93;;
40286;SDS011;25998;46.604;13.610;2023-12-07T16:55:21;24.23;;;14.05;;
40286;SDS011;25998;46.604;13.610;2023-12-07T16:58:32;24.15;;;13.30;;
40286;SDS011;25998;46.604;13.610;2023-12-07T17:01:42;23.08;;;13.82;;
40286;SDS011;25998;46.604;13.610;2023-12-07T17:04:53;20.70;;;14.15;;
40286;SDS011;25998;46.604;13.610;2023-12-07T17:08:04;38.75;;;27.92;;
40286;SDS011;25998;46.604;13.610;2023-12-07T17:11:16;39.80;;;28.08;;
40286;SDS011;25998;46.604;13.610;2023-12-07T17:14:27;80.22;;;19.55;;
40286;SDS011;25998;46.604;13.610;2023-12-07T17:17:38;17.35;;;12.32;;
40286;SDS011;25998;46.604;13.610;2023-12-07T17:20:49;18.25;;;12.95;;
40286;SDS011;25998;46.604;13.610;2023-12-07T17:24:00;18.10;;;12.45;;
40286;SDS011;25998;46.604;13.610;2023-12-07T17:27:11;20.23;;;11.95;;
40286;SDS011;25998;46.604;13.610;2023-12-07T17:30:22;21.10;;;11.77;;
40286;SDS011;25998;46.604;13.610;2023-12-07T17:33:33;20.52;;;11.57;;
40286;SDS011;25998;46.604;13.610;2023-12-07T17:36:44;21.58;;;13.25;;
40286;SDS011;25998;46.604;13.610;2023-12-07T17:39:55;20.33;;;13.00;;
40286;SDS011;25998;46.604;13.610;2023-12-07T17:43:07;20.48;;;13.52;;
40286;SDS011;25998;46.604;13.610;2023-12-07T17:46:18;19.95;;;12.80;;
40286;SDS011;25998;46.604;13.610;2023-12-07T17:49:29;24.48;;;12.88;;
40286;SDS011;25998;46.604;13.610;2023-12-07T17:52:41;23.55;;;12.45;;
40286;SDS011;25998;46.604;13.610;2023-12-07T17:55:54;21.98;;;13.75;;
40286;SDS011;25998;46.604;13.610;2023-12-07T17:59:05;18.20;;;12.50;;
40286;SDS011;25998;46.604;13.610;2023-12-07T18:02:16;16.85;;;11.02;;
40286;SDS011;25998;46.604;13.610;2023-12-07T18:05:27;15.20;;;10.48;;
40286;SDS011;25998;46.604;13.610;2023-12-07T18:08:37;16.63;;;10.55;;
40286;SDS011;25998;46.604;13.610;2023-12-07T18:11:48;13.98;;;10.68;;
40286;SDS011;25998;46.604;13.610;2023-12-07T18:14:59;17.42;;;10.73;;
40286;SDS011;25998;46.604;13.610;2023-12-07T18:18:10;15.77;;;11.13;;
40286;SDS011;25998;46.604;13.610;2023-12-07T18:21:21;14.32;;;10.32;;
40286;SDS011;25998;46.604;13.610;2023-12-07T18:24:32;13.48;;;10.07;;
40286;SDS011;25998;46.604;13.610;2023-12-07T18:27:43;17.50;;;14.18;;
40286;SDS011;25998;46.604;13.610;2023-12-07T18:30:54;26.40;;;21.35;;
40286;SDS011;25998;46.604;13.610;2023-12-07T18:34:04;17.90;;;13.57;;
40286;SDS011;25998;46.604;13.610;2023-12-07T18:37:15;18.48;;;14.32;;
40286;SDS011;25998;46.604;13.610;2023-12-07T18:40:26;15.02;;;10.15;;
40286;SDS011;25998;46.604;13.610;2023-12-07T18:43:38;12.60;;;9.00;;